• Join FlightAware (Why Join?)
  • Login
  • US Flag 
01:27AM EDT


 

Airport Tracker/Info


-or-


 

Live Flight TrackerFlight Track Log ✈ UAL527 ✈ 08-Jun-2013 ✈ KSNA - KDEN

Flight Track Log - Related Links

Times and Time Zones

All times are in EDT time to prevent confusion due to time zone crossing. See the UAL527 flight status page for this flight to view local times or setup timezone preferences in your user account.

Time Position Orientation Groundspeed Altitude Reporting Facility
EDT Latitude Longitude Course Direction KTS MPH feet Rate Location/Type
10:31AM 33.6500 -117.8833 90° East 135 155 1,300  Level Southern California TRACON
10:32AM 33.5964 -117.8950 190° South 138 159 3,700 1,440 Climbing Los Angeles Center
10:33AM 33.4667 -117.6851 90° East  Level FlightAware Approximate
10:33AM 33.5372 -117.8789 167° South 221 254 5,100  Level Los Angeles Center
10:34AM 33.5254 -117.5768 66° East  Level FlightAware Approximate
10:34AM 33.4906 -117.8158 132° Southeast 257 296 8,000  Level Los Angeles Center
10:35AM 33.5695 -117.4581 68° East  Level FlightAware Approximate
10:35AM 33.4775 -117.7311 100° East 269 310 10,700  Level Los Angeles Center
10:36AM 33.5833 -117.3313 90° East  Level FlightAware Approximate
10:36AM 33.5092 -117.6383 68° East 297 342 12,900  Level Los Angeles Center
10:37AM 33.5533 -117.5478 60° Northeast 313 360 15,600 2,340 Climbing Los Angeles Center
10:38AM 33.5850 -117.4478 69° East 336 387 17,700 2,340 Climbing Los Angeles Center
10:39AM 33.5894 -117.3103 88° East 347 399 20,500 2,280 Climbing Los Angeles Center
10:40AM 33.5939 -117.1925 87° East 355 409 22,500 1,200 Climbing Los Angeles Center
10:41AM 33.5989 -117.0692 87° East 368 423 23,000 240 Climbing Los Angeles Center
10:42AM 33.6025 -116.9367 88° East 394 453 23,000 540 Level Los Angeles Center
10:43AM 33.6078 -116.7956 87° East 393 452 24,200 900 Climbing Los Angeles Center
10:44AM 33.6119 -116.6625 88° East 398 458 24,900 300 Climbing Los Angeles Center
10:46AM 33.6169 -116.5275 87° East 404 465 24,900  Level Los Angeles Center
10:47AM 33.6203 -116.3922 88° East 404 465 24,900 180 Level Los Angeles Center
10:48AM 33.6261 -116.2569 87° East 404 465 25,300 480 Climbing Los Angeles Center
10:49AM 33.6522 -116.1247 77° East 411 473 25,900 240 Climbing Los Angeles Center
10:50AM 33.7264 -116.0169 50° Northeast 418 481 25,900  Level Los Angeles Center
10:51AM 33.8150 -115.8869 51° Northeast 419 482 25,900 300 Level Los Angeles Center
10:52AM 33.8894 -115.7778 51° Northeast 422 486 26,600 480 Climbing Los Angeles Center
10:53AM 33.9642 -115.6678 51° Northeast 423 487 27,000 120 Climbing Los Angeles Center
10:54AM 34.0542 -115.5361 50° Northeast 425 489 26,900  Descending Los Angeles Center
10:55AM 34.1289 -115.4247 51° Northeast 427 491 27,100 960 Climbing Los Angeles Center
10:56AM 34.2050 -115.3144 50° Northeast 428 493 28,900 1,500 Climbing Los Angeles Center
10:57AM 34.2806 -115.2047 50° Northeast 427 491 30,200 1,320 Climbing Los Angeles Center
10:58AM 34.3722 -115.0664 51° Northeast 435 501 32,000 1,620 Climbing Los Angeles Center
10:59AM 34.4619 -114.9311 51° Northeast 431 496 33,900 1,500 Climbing Los Angeles Center
11:00AM 34.5364 -114.8192 51° Northeast 427 491 35,100 1,080 Climbing Los Angeles Center
11:01AM 34.6125 -114.7053 51° Northeast 432 497 36,200 960 Climbing Los Angeles Center
11:03AM 34.6894 -114.5772 54° Northeast 433 498 37,300 960 Climbing Los Angeles Center
11:04AM 34.7747 -114.4344 54° Northeast 436 502 38,400 720 Climbing Los Angeles Center
11:05AM 34.8450 -114.3153 54° Northeast 434 499 38,800 240 Climbing Los Angeles Center
11:06AM 34.9167 -114.1947 54° Northeast 440 506 39,000 60 Climbing Los Angeles Center
11:07AM 34.9878 -114.0739 54° Northeast 440 506 39,000  Level Los Angeles Center
11:08AM 35.0708 -113.9350 54° Northeast 439 505 39,000  Level Los Angeles Center
11:09AM 35.1403 -113.8133 55° Northeast 438 504 39,000  Level Los Angeles Center
11:10AM 35.2117 -113.6933 54° Northeast 438 504 39,000  Level Los Angeles Center
11:11AM 35.2825 -113.5722 54° Northeast 439 505 39,000  Level Los Angeles Center
11:12AM 35.3531 -113.4514 54° Northeast 438 504 39,000  Level Los Angeles Center
11:13AM 35.4242 -113.3294 54° Northeast 438 504 39,000  Level Los Angeles Center
11:14AM 35.4981 -113.2028 54° Northeast 437 503 39,000  Level Los Angeles Center
11:15AM 35.5669 -113.0819 55° Northeast 434 499 39,000  Level Los Angeles Center
11:16AM 35.6467 -112.9386 56° Northeast 427 491 39,000  Level Los Angeles Center
11:17AM 35.7167 -112.8194 54° Northeast 432 497 39,000  Level Los Angeles Center
11:18AM 35.7850 -112.6986 55° Northeast 432 497 39,000  Level Los Angeles Center
11:19AM 35.8522 -112.5792 55° Northeast 428 493 39,000  Level Los Angeles Center
11:20AM 35.9200 -112.4586 55° Northeast 429 494 39,000  Level Los Angeles Center
11:21AM 35.9922 -112.3306 55° Northeast 427 491 39,000  Level Los Angeles Center
11:22AM 36.0692 -112.1922 55° Northeast 434 499 39,000  Level Los Angeles Center
11:23AM 36.1369 -112.0706 55° Northeast 431 496 39,000  Level Los Angeles Center
11:24AM 36.2106 -111.9392 55° Northeast 434 499 39,000  Level Los Angeles Center
11:25AM 36.2783 -111.8178 55° Northeast 432 497 39,000  Level Los Angeles Center
11:26AM 36.3442 -111.6983 56° Northeast 424 488 39,000 -60 Level Los Angeles Center
11:27AM 36.4094 -111.5794 56° Northeast 419 482 38,900 -120 Descending Los Angeles Center
11:28AM 36.4464 -111.5122 56° Northeast 413 475 38,900  Level Denver Center
11:29AM 36.5117 -111.3950 55° Northeast 413 475 38,900  Level Denver Center
11:30AM 36.5764 -111.2772 56° Northeast 414 476 38,900  Level Denver Center
11:31AM 36.6400 -111.1589 56° Northeast 414 476 39,000  Climbing Denver Center
11:32AM 36.7183 -111.0142 56° Northeast 420 483 39,000  Level Denver Center
11:33AM 36.7831 -110.8922 56° Northeast 424 488 39,000  Level Denver Center
11:34AM 36.8489 -110.7714 56° Northeast 424 488 39,000  Level Denver Center
11:35AM 36.9128 -110.6494 57° Northeast 420 483 39,000  Level Denver Center
11:36AM 36.9789 -110.5275 56° Northeast 425 489 39,000  Level Denver Center
11:37AM 37.0428 -110.4058 57° Northeast 423 487 39,000  Level Denver Center
11:38AM 37.1203 -110.2597 56° Northeast 421 484 39,000  Level Denver Center
11:39AM 37.1875 -110.1331 56° Northeast 424 488 39,000  Level Denver Center
11:40AM 37.2497 -110.0169 56° Northeast 420 483 39,000  Level Denver Center
11:41AM 37.3011 -109.9178 57° Northeast 422 486 39,000  Level Denver Center
11:42AM 37.3825 -109.7608 57° Northeast 420 483 39,000 -240 Level Denver Center
11:43AM 37.4425 -109.6447 57° Northeast 416 479 38,600 -780 Descending Denver Center
11:44AM 37.5125 -109.5086 57° Northeast 414 476 37,500 -780 Descending Denver Center
11:45AM 37.5708 -109.3964 57° Northeast 405 466 37,000 -300 Descending Denver Center
11:46AM 37.6400 -109.2622 57° Northeast 407 468 37,000  Level Denver Center
11:47AM 37.6981 -109.1489 57° Northeast 403 464 37,000  Level Denver Center
11:48AM 37.7375 -109.0044 71° East 402 463 37,000  Level Denver Center
11:50AM 37.6917 -108.8783 115° Southeast 415 478 37,000  Level Denver Center
11:51AM 37.6508 -108.7500 112° Southeast 416 479 37,000  Level Denver Center
11:52AM 37.6883 -108.6200 70° East 361 415 37,000  Level Denver Center
11:53AM 37.7419 -108.5222 55° Northeast 354 407 37,000  Level Denver Center
11:54AM 37.7958 -108.4267 54° Northeast 348 400 37,000  Level Denver Center
11:55AM 37.8594 -108.3161 54° Northeast 349 402 37,000  Level Denver Center
11:56AM 37.9239 -108.2025 54° Northeast 354 407 37,000  Level Denver Center
11:57AM 37.9786 -108.1031 55° Northeast 358 412 37,000  Level Denver Center
11:58AM 38.0422 -107.9928 54° Northeast 350 403 37,000  Level Denver Center
11:59AM 38.0936 -107.8989 55° Northeast 352 405 37,000  Level Denver Center
12:00PM 38.1625 -107.7939 50° Northeast 351 404 37,000  Level Denver Center
12:01PM 38.2375 -107.7353 32° Northeast 334 384 37,000  Level Denver Center
12:02PM 38.3272 -107.6650 32° Northeast 338 389 37,000  Level Denver Center
12:03PM 38.4031 -107.6058 31° Northeast 337 388 37,000  Level Denver Center
12:04PM 38.4661 -107.5542 33° Northeast 336 387 37,000 -540 Level Denver Center
12:05PM 38.5614 -107.4622 37° Northeast 342 394 36,000 -1,140 Descending Denver Center
12:06PM 38.6142 -107.3381 61° Northeast 355 409 34,700 -1,500 Descending Denver Center
12:07PM 38.6597 -107.2325 61° Northeast 355 409 33,000 -1,860 Descending Denver Center
12:08PM 38.7042 -107.1317 61° Northeast 360 414 30,900 -1,800 Descending Denver Center
12:09PM 38.7675 -106.9861 61° Northeast 388 447 29,400 -1,260 Descending Denver Center
12:10PM 38.8186 -106.8642 62° Northeast 390 449 28,400 -960 Descending Denver Center
12:11PM 38.8778 -106.7250 61° Northeast 372 428 27,300 -660 Descending Denver Center
12:12PM 38.9333 -106.5922 62° Northeast 373 429 27,000 -180 Descending Denver Center
12:13PM 38.9828 -106.4786 61° Northeast 380 437 27,000  Level Denver Center
12:15PM 39.0356 -106.3481 62° Northeast 371 427 27,000  Level Denver Center
12:16PM 39.0844 -106.2325 61° Northeast 380 437 27,000 -60 Level Denver Center
12:17PM 39.1331 -106.1183 61° Northeast 376 433 26,900 -900 Descending Denver Center
12:18PM 39.1919 -105.9756 62° Northeast 377 434 25,200 -1,620 Descending Denver Center
12:19PM 39.2425 -105.8544 62° Northeast 383 441 23,600 -1,620 Descending Denver Center
12:20PM 39.2908 -105.7383 62° Northeast 372 428 21,900 -2,160 Descending Denver Center
12:21PM 39.3361 -105.6261 62° Northeast 356 410 19,200 -1,860 Descending Denver Center
12:22PM 39.3717 -105.5392 62° Northeast 347 399 18,200 -1,260 Descending Denver Center
12:23PM 39.4000 -105.3789 77° East 360 414 16,600 -1,440 Descending Denver Center
12:24PM 39.4056 -105.2558 87° East 347 399 15,300 -1,320 Descending Denver Center
12:25PM 39.4111 -105.1347 87° East 341 392 13,900 -1,140 Descending Denver Center
12:26PM 39.4164 -105.0097 87° East 328 377 13,000 -780 Descending Denver Center
12:27PM 39.4219 -104.9047 86° East 293 337 12,400 -1,020 Descending Denver Center
12:28PM 39.4408 -104.8069 76° East 280 322 10,900 -1,080 Descending Denver Center
12:29PM 39.5044 -104.7847 15° North 239 275 10,000 -600 Descending Denver Center
12:30PM 39.5847 -104.7567 15° North 243 280 9,600 -780 Descending Denver Center
12:31PM 39.6514 -104.7333 15° North 231 266 8,400 -1,140 Descending Denver Center
12:32PM 39.7106 -104.7125 15° North 223 257 7,300 -1,080 Descending Denver Center